地図

経路データ

SID SEASON NUMBER BASIN SUBBASIN NAME ISO_TIME NATURE LAT LON WMO_WIND WMO_PRES WMO_AGENCY TRACK_TYPE DIST2LAND LANDFALL IFLAG USA_AGENCY USA_ATCF_ID USA_LAT USA_LON USA_RECORD USA_STATUS USA_WIND USA_PRES USA_SSHS USA_R34_NE USA_R34_SE USA_R34_SW USA_R34_NW USA_R50_NE USA_R50_SE USA_R50_SW USA_R50_NW USA_R64_NE USA_R64_SE USA_R64_SW USA_R64_NW USA_POCI USA_ROCI USA_RMW USA_EYE TOKYO_LAT TOKYO_LON TOKYO_GRADE TOKYO_WIND TOKYO_PRES TOKYO_R50_DIR TOKYO_R50_LONG TOKYO_R50_SHORT TOKYO_R30_DIR TOKYO_R30_LONG TOKYO_R30_SHORT TOKYO_LAND CMA_LAT CMA_LON CMA_CAT CMA_WIND CMA_PRES HKO_LAT HKO_LON HKO_CAT HKO_WIND HKO_PRES NEWDELHI_LAT NEWDELHI_LON NEWDELHI_GRADE NEWDELHI_WIND NEWDELHI_PRES NEWDELHI_CI NEWDELHI_DP NEWDELHI_POCI REUNION_LAT REUNION_LON REUNION_TYPE REUNION_WIND REUNION_PRES REUNION_TNUM REUNION_CI REUNION_RMW REUNION_R34_NE REUNION_R34_SE REUNION_R34_SW REUNION_R34_NW REUNION_R50_NE REUNION_R50_SE REUNION_R50_SW REUNION_R50_NW REUNION_R64_NE REUNION_R64_SE REUNION_R64_SW REUNION_R64_NW BOM_LAT BOM_LON BOM_TYPE BOM_WIND BOM_PRES BOM_TNUM BOM_CI BOM_RMW BOM_R34_NE BOM_R34_SE BOM_R34_SW BOM_R34_NW BOM_R50_NE BOM_R50_SE BOM_R50_SW BOM_R50_NW BOM_R64_NE BOM_R64_SE BOM_R64_SW BOM_R64_NW BOM_ROCI BOM_POCI BOM_EYE BOM_POS_METHOD BOM_PRES_METHOD NADI_LAT NADI_LON NADI_CAT NADI_WIND NADI_PRES WELLINGTON_LAT WELLINGTON_LON WELLINGTON_WIND WELLINGTON_PRES DS824_LAT DS824_LON DS824_STAGE DS824_WIND DS824_PRES TD9636_LAT TD9636_LON TD9636_STAGE TD9636_WIND TD9636_PRES TD9635_LAT TD9635_LON TD9635_WIND TD9635_PRES TD9635_ROCI NEUMANN_LAT NEUMANN_LON NEUMANN_CLASS NEUMANN_WIND NEUMANN_PRES MLC_LAT MLC_LON MLC_CLASS MLC_WIND MLC_PRES USA_GUST BOM_GUST BOM_GUST_PER REUNION_GUST REUNION_GUST_PER USA_SEAHGT USA_SEARAD_NE USA_SEARAD_SE USA_SEARAD_SW USA_SEARAD_NW STORM_SPEED STORM_DIR
1903060S14056 1903 20 SI MM NOT_NAMED 1903-03-01 06:00:00 NR -13.5000 56.4000 spur-split 663 595 __________O___ -1 -13.5000 56.4000 7 14 248
1903060S14056 1903 20 SI MM NOT_NAMED 1903-03-01 09:00:00 NR -13.7579 55.7416 spur-split 581 513 __________P___ -1 -13.7579 55.7416 7 14 247
1903060S14056 1903 20 SI MM NOT_NAMED 1903-03-01 12:00:00 NR -14.0318 55.1060 spur-split 513 441 __________P___ -1 -14.0318 55.1060 7 13 244
1903060S14056 1903 20 SI MM NOT_NAMED 1903-03-01 15:00:00 NR -14.3398 54.5174 spur-split 441 380 __________P___ -1 -14.3398 54.5174 7 13 238
1903060S14056 1903 20 SI MM NOT_NAMED 1903-03-01 18:00:00 NR -14.7000 54.0000 spur-split 380 333 __________O___ -1 -14.7000 54.0000 7 12 229
1903060S14056 1903 20 SI MM NOT_NAMED 1903-03-01 21:00:00 NR -15.1272 53.5712 spur-split 333 290 __________P___ -1 -15.1272 53.5712 7 12 219
1903060S14056 1903 20 SI MM NOT_NAMED 1903-03-02 00:00:00 NR -15.6218 53.2220 spur-split 290 276 __________P___ -1 -15.6218 53.2220 7 12 210
1903060S14056 1903 20 SI MM NOT_NAMED 1903-03-02 03:00:00 NR -16.1806 52.9368 spur-split 272 270 __________P___ -1 -16.1806 52.9368 7 13 203
1903060S14056 1903 20 SI MM NOT_NAMED 1903-03-02 06:00:00 NR -16.8000 52.7000 spur-split 279 274 __________O___ -1 -16.8000 52.7000 7 14 200
1903060S14056 1903 20 SI MM NOT_NAMED 1903-03-02 09:00:00 NR -17.4714 52.4497 spur-split 287 287 __________P___ -1 -17.4714 52.4497 7 15 197
1903060S14056 1903 20 SI MM NOT_NAMED 1903-03-02 12:00:00 NR -18.1974 52.2456 spur-split 291 290 __________P___ -1 -18.1974 52.2456 7 15 193
1903060S14056 1903 20 SI MM NOT_NAMED 1903-03-02 15:00:00 NR -18.9497 52.0937 spur-split 295 295 __________P___ -1 -18.9497 52.0937 7 15 189
1903060S14056 1903 20 SI MM NOT_NAMED 1903-03-02 18:00:00 NR -19.7000 52.0000 spur-split 314 314 __________O___ -1 -19.7000 52.0000 7 15 185
1903060S14056 1903 20 SI MM NOT_NAMED 1903-03-02 21:00:00 NR -20.3989 51.9546 spur-split 336 331 __________P___ -1 -20.3989 51.9546 7 14 181
1903060S14056 1903 20 SI MM NOT_NAMED 1903-03-03 00:00:00 NR -21.0924 51.9668 spur-split 331 331 __________P___ -1 -21.0924 51.9668 7 14 177
1903060S14056 1903 20 SI MM NOT_NAMED 1903-03-03 03:00:00 NR -21.7896 52.0206 spur-split 340 339 __________P___ -1 -21.7896 52.0206 7 14 175
1903060S14056 1903 20 SI MM NOT_NAMED 1903-03-03 06:00:00 NR -22.5000 52.1000 spur-split 356 356 __________O___ -1 -22.5000 52.1000 7 15 175
1903060S14056 1903 20 SI MM NOT_NAMED 1903-03-03 09:00:00 NR -23.2518 52.1703 spur-split 389 389 __________P___ -1 -23.2518 52.1703 7 15 174
1903060S14056 1903 20 SI MM NOT_NAMED 1903-03-03 12:00:00 NR -24.0149 52.2626 spur-split 431 431 __________P___ -1 -24.0149 52.2626 7 15 173
1903060S14056 1903 20 SI MM NOT_NAMED 1903-03-03 15:00:00 NR -24.7706 52.3736 spur-split 490 490 __________P___ -1 -24.7706 52.3736 7 15 172
1903060S14056 1903 20 SI MM NOT_NAMED 1903-03-03 18:00:00 NR -25.5000 52.5000 spur-split 531 531 __________O___ -1 -25.5000 52.5000 7 14 171
1903060S14056 1903 20 SI MM NOT_NAMED 1903-03-03 21:00:00 NR -26.1583 52.6245 spur-split 565 565 __________P___ -1 -26.1583 52.6245 7 13 170
1903060S14056 1903 20 SI MM NOT_NAMED 1903-03-04 00:00:00 NR -26.7923 52.7641 spur-split 604 604 __________P___ -1 -26.7923 52.7641 7 13 168
1903060S14056 1903 20 SI MM NOT_NAMED 1903-03-04 03:00:00 NR -27.4302 52.9217 spur-split 637 637 __________P___ -1 -27.4302 52.9217 7 13 167
1903060S14056 1903 20 SI MM NOT_NAMED 1903-03-04 06:00:00 NR -28.1000 53.1000 spur-split 689 689 __________O___ -1 -28.1000 53.1000 7 15 167
1903060S14056 1903 20 SI MM NOT_NAMED 1903-03-04 09:00:00 NR -28.8594 53.3031 spur-split 752 752 __________P___ -1 -28.8594 53.3031 7 16 166
1903060S14056 1903 20 SI MM NOT_NAMED 1903-03-04 12:00:00 NR -29.6501 53.5270 spur-split 820 820 __________P___ -1 -29.6501 53.5270 7 16 166
1903060S14056 1903 20 SI MM NOT_NAMED 1903-03-04 15:00:00 NR -30.4407 53.7626 spur-split 892 892 __________P___ -1 -30.4407 53.7626 7 16 165
1903060S14056 1903 20 SI MM NOT_NAMED 1903-03-04 18:00:00 NR -31.2000 54.0000 spur-split 965 965 __________O___ -1 -31.2000 54.0000 7 15 165
1903060S14056 1903 20 SI MM NOT_NAMED 1903-03-04 21:00:00 NR -31.9046 54.2310 spur-split 1033 1033 __________P___ -1 -31.9046 54.2310 7 14 164
1903060S14056 1903 20 SI MM NOT_NAMED 1903-03-05 00:00:00 NR -32.5625 54.4561 spur-split 1109 1109 __________P___ -1 -32.5625 54.4561 7 13 164
1903060S14056 1903 20 SI MM NOT_NAMED 1903-03-05 03:00:00 NR -33.1892 54.6781 spur-split 1171 1171 __________P___ -1 -33.1892 54.6781 7 13 163
1903060S14056 1903 20 SI MM NOT_NAMED 1903-03-05 06:00:00 NR -33.8000 54.9000 spur-split 1234 __________O___ -1 -33.8000 54.9000 7 13 163

IBTrACS Databaseについて

本データベースは、米国NOAAが公開する1842年以降の世界の熱帯低気圧のベストトラックデータアーカイブInternational Best Track Archive for Climate Stewardship (IBTrACS)を、ウェブで閲覧しやすい形式に変換したものです。

最終更新日:2021-12-06